»·PEaware :: DAL1120 KSLC-KPDX

DAL1120 :: KSLC-KPDX

FLIGHT INFORMATION

Flight Status: Arrived
Operator:
Delta Air Lines
More flights by this operator :: More flights under this callsign
Pilot: Sergei F. (8485)
Aircraft: BOEING 757-200
(B752)
More flights by this aircraft type
Origin: KSLC Salt Lake City Intl
United States
Destination: KPDX Portland Intl
United States
More flights between these airports :: More routes between these airports
Route: TWF4 TWF J15 BOI J163 BKE JOTBA HHOOD4
File this flight plan on PilotEdge
Remarks:
Altitude:
(Current/Filed)
38,000ft
Speed:
(Current/Filed)
300kts
Departed: 12-Jan-18 05:16 PM
Arrived: 12-Jan-18 07:02 PM
Distance/Time
Traveled:
546nm/1:46
Distance/Time
To Go:
Arrived

Flight Plot

Page will automatically refresh every two minutes.

Flight plan parsing failed; only flown route is shown


Map Options




Map Legend


Flown Route
Filed Route
Departure Airport
Arrival Airport
Navaid (VOR, NDB)
Fix

Horizontal Profiles

Position Reports

Time Latitude Longitude Heading Altitude Ground
Speed
12-Jan-18 16:45 40.788553 -111.984284 252 4227ft 0kts
12-Jan-18 16:46 40.788553 -111.984284 252 4227ft 0kts
12-Jan-18 16:47 40.788553 -111.984284 252 4227ft 0kts
12-Jan-18 16:48 40.788553 -111.984284 252 4227ft 0kts
12-Jan-18 16:49 40.788553 -111.984284 252 4227ft 0kts
12-Jan-18 16:50 40.788553 -111.984284 252 4227ft 0kts
12-Jan-18 16:51 40.788553 -111.984284 252 4227ft 0kts
12-Jan-18 16:52 40.788553 -111.984284 252 4227ft 0kts
12-Jan-18 16:53 40.788553 -111.984284 252 4227ft 0kts
12-Jan-18 16:54 40.788553 -111.984284 252 4227ft 0kts
12-Jan-18 16:55 40.788553 -111.984284 252 4227ft 0kts
12-Jan-18 16:56 40.788553 -111.984284 252 4227ft 0kts
12-Jan-18 16:57 40.788559 -111.984257 252 4227ft 0kts
12-Jan-18 16:58 40.788610 -111.984038 253 4227ft 0kts
12-Jan-18 16:59 40.788624 -111.983778 301 4227ft 0kts
12-Jan-18 17:00 40.788442 -111.983651 354 4227ft 0kts
12-Jan-18 17:01 40.788679 -111.983676 3 4227ft 0kts
12-Jan-18 17:02 40.788917 -111.983456 28 4227ft 0kts
12-Jan-18 17:03 40.789052 -111.983439 2 4227ft 0kts
12-Jan-18 17:04 40.789064 -111.983438 2 4227ft 0kts
12-Jan-18 17:05 40.789064 -111.983438 2 4227ft 0kts
12-Jan-18 17:06 40.789064 -111.983438 2 4227ft 0kts
12-Jan-18 17:07 40.789064 -111.983438 2 4227ft 0kts
12-Jan-18 17:08 40.789065 -111.983438 2 4227ft 0kts
12-Jan-18 17:09 40.789065 -111.983438 2 4227ft 0kts
12-Jan-18 17:10 40.790096 -111.982988 18 4227ft 5kts
12-Jan-18 17:11 40.791792 -111.981986 83 4224ft 7kts
12-Jan-18 17:12 40.791975 -111.979408 84 4224ft 6kts
12-Jan-18 17:13 40.791730 -111.977304 165 4226ft 6kts
12-Jan-18 17:14 40.789401 -111.977023 174 4227ft 10kts
12-Jan-18 17:15 40.785866 -111.976613 175 4229ft 12kts
12-Jan-18 17:16 40.783079 -111.976286 175 4231ft 8kts
12-Jan-18 17:17 40.780985 -111.976041 174 4231ft 7kts
12-Jan-18 17:18 40.778135 -111.975711 175 4231ft 12kts
12-Jan-18 17:19 40.775627 -111.975422 174 4231ft 6kts
12-Jan-18 17:20 40.774491 -111.974531 100 4231ft 0kts
12-Jan-18 17:21 40.774730 -111.973645 47 4231ft 5kts
12-Jan-18 17:22 40.788467 -111.974735 354 4227ft 136kts
12-Jan-18 17:23 40.833968 -111.986391 326 6306ft 177kts
12-Jan-18 17:24 40.855322 -112.052404 288 8522ft 224kts
12-Jan-18 17:25 40.873276 -112.127787 289 10891ft 232kts
12-Jan-18 17:26 40.894861 -112.214304 290 12196ft 252kts
12-Jan-18 17:27 40.925792 -112.297284 323 14151ft 262kts
12-Jan-18 17:28 40.990579 -112.340167 326 16233ft 264kts
12-Jan-18 17:29 41.050501 -112.401290 318 17856ft 280kts
12-Jan-18 17:30 41.115039 -112.463786 325 19201ft 310kts
12-Jan-18 17:31 41.190834 -112.531197 321 20342ft 345kts
12-Jan-18 17:32 41.271185 -112.613309 319 21553ft 376kts
12-Jan-18 17:33 41.342786 -112.714747 313 23554ft 381kts
12-Jan-18 17:34 41.414110 -112.819636 312 25384ft 388kts
12-Jan-18 17:35 41.485652 -112.928876 313 27015ft 397kts
12-Jan-18 17:36 41.558890 -113.041080 313 28476ft 407kts
12-Jan-18 17:37 41.633233 -113.155426 314 29876ft 414kts
12-Jan-18 17:38 41.707927 -113.270784 314 31615ft 408kts
12-Jan-18 17:39 41.781596 -113.384973 315 33377ft 400kts
12-Jan-18 17:40 41.852582 -113.495382 316 34936ft 395kts
12-Jan-18 17:41 41.924662 -113.607921 316 36287ft 392kts
12-Jan-18 17:42 41.995002 -113.718155 315 37178ft 392kts
12-Jan-18 17:43 42.065956 -113.829771 315 37887ft 392kts
12-Jan-18 17:44 42.135305 -113.939288 315 38410ft 391kts
12-Jan-18 17:45 42.205610 -114.050721 315 38410ft 391kts
12-Jan-18 17:46 42.275795 -114.162383 315 38412ft 391kts
12-Jan-18 17:47 42.346115 -114.274684 315 38413ft 391kts
12-Jan-18 17:48 42.415946 -114.386627 315 38411ft 391kts
12-Jan-18 17:49 42.485781 -114.498677 316 38409ft 390kts
12-Jan-18 17:50 42.557305 -114.609092 316 38407ft 390kts
12-Jan-18 17:51 42.627948 -114.718633 316 38410ft 391kts
12-Jan-18 17:52 42.699259 -114.829630 316 38408ft 391kts
12-Jan-18 17:53 42.770571 -114.941052 316 38406ft 391kts
12-Jan-18 17:54 42.841984 -115.053032 315 38406ft 394kts
12-Jan-18 17:55 42.913682 -115.165917 314 38410ft 396kts
12-Jan-18 17:56 42.985222 -115.279020 314 38409ft 392kts
12-Jan-18 17:57 43.056005 -115.391348 313 38407ft 389kts
12-Jan-18 17:58 43.124817 -115.500958 313 38424ft 389kts
12-Jan-18 17:59 43.194835 -115.612903 313 38421ft 389kts
12-Jan-18 18:00 43.264765 -115.725158 313 38427ft 389kts
12-Jan-18 18:01 43.334571 -115.837637 313 38425ft 389kts
12-Jan-18 18:02 43.404669 -115.951026 313 38423ft 389kts
12-Jan-18 18:03 43.474245 -116.064014 313 38421ft 389kts
12-Jan-18 18:04 43.543892 -116.177543 313 38418ft 389kts
12-Jan-18 18:05 43.623068 -116.277633 320 38416ft 387kts
12-Jan-18 18:06 43.703295 -116.375870 320 38414ft 387kts
12-Jan-18 18:07 43.783349 -116.474175 320 38411ft 387kts
12-Jan-18 18:08 43.863643 -116.573128 320 38409ft 387kts
12-Jan-18 18:09 43.943274 -116.671633 319 38416ft 387kts
12-Jan-18 18:10 44.023266 -116.770936 319 38413ft 387kts
12-Jan-18 18:11 44.102801 -116.870056 319 38413ft 387kts
12-Jan-18 18:12 44.182224 -116.969395 319 38426ft 391kts
12-Jan-18 18:13 44.263990 -117.072072 318 38424ft 396kts
12-Jan-18 18:14 44.345620 -117.174990 318 38439ft 399kts
12-Jan-18 18:15 44.427702 -117.278900 318 38428ft 399kts
12-Jan-18 18:16 44.509657 -117.383052 318 38408ft 399kts
12-Jan-18 18:17 44.591527 -117.487507 318 38406ft 399kts
12-Jan-18 18:18 44.673346 -117.592316 318 38404ft 399kts
12-Jan-18 18:19 44.754192 -117.696291 317 38410ft 399kts
12-Jan-18 18:20 44.830660 -117.808534 301 38419ft 403kts
12-Jan-18 18:21 44.860442 -117.962741 286 38407ft 412kts
12-Jan-18 18:22 44.881707 -118.121570 286 38405ft 413kts
12-Jan-18 18:23 44.902373 -118.280817 285 38408ft 413kts
12-Jan-18 18:24 44.922678 -118.439683 285 38410ft 413kts
12-Jan-18 18:25 44.942749 -118.598662 285 38411ft 413kts
12-Jan-18 18:26 44.962174 -118.754310 285 38422ft 413kts
12-Jan-18 18:27 44.981937 -118.914424 284 38422ft 413kts
12-Jan-18 18:28 45.000458 -119.066366 283 38420ft 414kts
12-Jan-18 18:29 45.019732 -119.226571 283 38416ft 412kts
12-Jan-18 18:30 45.038630 -119.385461 283 38411ft 410kts
12-Jan-18 18:31 45.057116 -119.542933 283 37370ft 399kts
12-Jan-18 18:32 45.074474 -119.692440 283 35428ft 388kts
12-Jan-18 18:33 45.091865 -119.843847 282 33409ft 392kts
12-Jan-18 18:34 45.109106 -119.995940 282 31454ft 398kts
12-Jan-18 18:35 45.126509 -120.151481 282 29520ft 401kts
12-Jan-18 18:36 45.143378 -120.304255 281 27653ft 390kts
12-Jan-18 18:37 45.159759 -120.454398 281 25846ft 382kts
12-Jan-18 18:38 45.194895 -120.591997 299 24089ft 371kts
12-Jan-18 18:39 45.243244 -120.717803 298 22384ft 364kts
12-Jan-18 18:40 45.290584 -120.841161 298 20719ft 357kts
12-Jan-18 18:41 45.330077 -120.944456 298 19318ft 352kts
12-Jan-18 18:42 45.383551 -121.084906 297 17464ft 339kts
12-Jan-18 18:43 45.420754 -121.182837 297 16981ft 343kts
12-Jan-18 18:44 45.453128 -121.327659 286 15067ft 298kts
12-Jan-18 18:45 45.469833 -121.412220 286 13861ft 289kts
12-Jan-18 18:46 45.493879 -121.533710 286 12140ft 282kts
12-Jan-18 18:47 45.510562 -121.618444 285 11493ft 258kts
12-Jan-18 18:48 45.529957 -121.732167 272 10000ft 253kts
12-Jan-18 18:49 45.533126 -121.815686 270 9172ft 255kts
12-Jan-18 18:50 45.537397 -121.917932 273 9029ft 267kts
12-Jan-18 18:51 45.539988 -122.022826 288 9036ft 262kts
12-Jan-18 18:52 45.564480 -122.119748 294 9036ft 259kts
12-Jan-18 18:53 45.589414 -122.216312 294 9031ft 260kts
12-Jan-18 18:54 45.612390 -122.314105 290 9019ft 255kts
12-Jan-18 18:55 45.631693 -122.407953 291 8319ft 249kts
12-Jan-18 18:56 45.655100 -122.496705 301 7361ft 239kts
12-Jan-18 18:57 45.683505 -122.575868 300 6076ft 222kts
12-Jan-18 18:58 45.710810 -122.651458 298 4891ft 218kts
12-Jan-18 18:59 45.739061 -122.729639 298 3989ft 216kts
12-Jan-18 19:00 45.766478 -122.805768 297 4000ft 215kts
12-Jan-18 19:01 45.770669 -122.887840 239 3588ft 220kts
12-Jan-18 19:02 45.720296 -122.908288 146 3007ft 210kts
12-Jan-18 19:03 45.689184 -122.839013 119 2983ft 201kts
12-Jan-18 19:04 45.664011 -122.773851 118 2796ft 180kts
12-Jan-18 19:05 45.641615 -122.715985 118 1922ft 145kts
12-Jan-18 19:06 45.622844 -122.667779 117 1134ft 138kts
12-Jan-18 19:07 45.604386 -122.620518 118 435ft 135kts
12-Jan-18 19:08 45.589777 -122.582763 118 28ft 18kts
12-Jan-18 19:09 45.588634 -122.582219 207 28ft 0kts
12-Jan-18 19:10 45.588097 -122.581701 116 28ft 6kts
12-Jan-18 19:11 45.587186 -122.579319 119 28ft 0kts
12-Jan-18 19:12 45.587186 -122.579319 119 28ft 0kts
12-Jan-18 19:13 45.586865 -122.578543 135 28ft 6kts
12-Jan-18 19:14 45.586428 -122.579674 295 28ft 5kts
12-Jan-18 19:15 45.587695 -122.582995 297 28ft 9kts
12-Jan-18 19:16 45.589034 -122.586483 299 28ft 29kts
12-Jan-18 19:17 45.592331 -122.594740 282 29ft 5kts
12-Jan-18 19:18 45.591881 -122.595771 234 28ft 0kts
12-Jan-18 19:19 45.591851 -122.595825 231 28ft 0kts
12-Jan-18 19:20 45.591851 -122.595825 231 28ft 0kts
12-Jan-18 19:21 45.591851 -122.595825 231 28ft 0kts
12-Jan-18 19:22 45.591851 -122.595825 231 28ft 0kts

Navigation Log

Ident Type
Flight plan parsing failed, navigation log unavailable